sensor_id;sensor_type;location;lat;lon;timestamp;P1;durP1;ratioP1;P2;durP2;ratioP2
11893;SDS011;6006;49.696;8.662;2023-07-13T00:00:14;2.72;;;1.35;;
11893;SDS011;6006;49.696;8.662;2023-07-13T00:02:42;2.47;;;1.25;;
11893;SDS011;6006;49.696;8.662;2023-07-13T00:05:09;2.30;;;1.10;;
11893;SDS011;6006;49.696;8.662;2023-07-13T00:07:36;1.20;;;1.20;;
11893;SDS011;6006;49.696;8.662;2023-07-13T00:10:05;1.42;;;1.25;;
11893;SDS011;6006;49.696;8.662;2023-07-13T00:12:34;2.92;;;1.52;;
11893;SDS011;6006;49.696;8.662;2023-07-13T00:15:04;2.40;;;1.33;;
11893;SDS011;6006;49.696;8.662;2023-07-13T00:17:32;4.60;;;1.40;;
11893;SDS011;6006;49.696;8.662;2023-07-13T00:19:59;3.28;;;1.38;;
11893;SDS011;6006;49.696;8.662;2023-07-13T00:22:27;1.73;;;1.38;;
11893;SDS011;6006;49.696;8.662;2023-07-13T00:24:54;2.70;;;1.20;;
11893;SDS011;6006;49.696;8.662;2023-07-13T00:27:23;2.63;;;1.40;;
11893;SDS011;6006;49.696;8.662;2023-07-13T00:29:51;2.67;;;1.80;;
11893;SDS011;6006;49.696;8.662;2023-07-13T00:32:18;1.48;;;1.35;;
11893;SDS011;6006;49.696;8.662;2023-07-13T00:34:45;3.47;;;1.48;;
11893;SDS011;6006;49.696;8.662;2023-07-13T00:37:13;1.80;;;1.20;;
11893;SDS011;6006;49.696;8.662;2023-07-13T00:39:40;2.00;;;1.40;;
11893;SDS011;6006;49.696;8.662;2023-07-13T00:42:06;1.58;;;1.48;;
11893;SDS011;6006;49.696;8.662;2023-07-13T00:44:35;1.30;;;1.20;;
11893;SDS011;6006;49.696;8.662;2023-07-13T00:47:02;1.25;;;1.15;;
11893;SDS011;6006;49.696;8.662;2023-07-13T00:49:29;1.27;;;1.25;;
11893;SDS011;6006;49.696;8.662;2023-07-13T00:51:58;2.42;;;1.30;;
11893;SDS011;6006;49.696;8.662;2023-07-13T00:54:29;1.70;;;1.42;;
11893;SDS011;6006;49.696;8.662;2023-07-13T00:56:59;1.55;;;1.40;;
11893;SDS011;6006;49.696;8.662;2023-07-13T00:59:30;1.23;;;1.10;;
11893;SDS011;6006;49.696;8.662;2023-07-13T01:01:59;1.67;;;1.30;;
11893;SDS011;6006;49.696;8.662;2023-07-13T01:04:27;2.85;;;1.30;;
11893;SDS011;6006;49.696;8.662;2023-07-13T01:06:54;2.35;;;1.25;;
11893;SDS011;6006;49.696;8.662;2023-07-13T01:09:21;1.73;;;1.38;;
11893;SDS011;6006;49.696;8.662;2023-07-13T01:11:49;1.60;;;1.50;;
11893;SDS011;6006;49.696;8.662;2023-07-13T01:14:15;4.20;;;1.35;;
11893;SDS011;6006;49.696;8.662;2023-07-13T01:16:44;1.50;;;1.40;;
11893;SDS011;6006;49.696;8.662;2023-07-13T01:19:17;2.67;;;1.80;;
11893;SDS011;6006;49.696;8.662;2023-07-13T01:22:02;2.67;;;1.70;;
11893;SDS011;6006;49.696;8.662;2023-07-13T01:24:33;2.10;;;1.60;;
11893;SDS011;6006;49.696;8.662;2023-07-13T01:27:01;1.70;;;1.60;;
11893;SDS011;6006;49.696;8.662;2023-07-13T01:29:28;1.58;;;1.48;;
11893;SDS011;6006;49.696;8.662;2023-07-13T01:31:56;1.47;;;1.30;;
11893;SDS011;6006;49.696;8.662;2023-07-13T01:34:23;2.80;;;1.60;;
11893;SDS011;6006;49.696;8.662;2023-07-13T01:36:50;1.67;;;1.57;;
11893;SDS011;6006;49.696;8.662;2023-07-13T01:39:20;1.50;;;1.40;;
11893;SDS011;6006;49.696;8.662;2023-07-13T01:41:47;2.40;;;1.70;;
11893;SDS011;6006;49.696;8.662;2023-07-13T01:44:13;3.53;;;1.77;;
11893;SDS011;6006;49.696;8.662;2023-07-13T01:46:40;2.33;;;2.07;;
11893;SDS011;6006;49.696;8.662;2023-07-13T01:49:07;1.60;;;1.50;;
11893;SDS011;6006;49.696;8.662;2023-07-13T01:51:34;3.73;;;1.80;;
11893;SDS011;6006;49.696;8.662;2023-07-13T01:54:01;2.10;;;1.63;;
11893;SDS011;6006;49.696;8.662;2023-07-13T01:56:29;2.07;;;1.90;;
11893;SDS011;6006;49.696;8.662;2023-07-13T01:58:56;2.07;;;1.67;;
11893;SDS011;6006;49.696;8.662;2023-07-13T02:01:23;1.93;;;1.77;;
11893;SDS011;6006;49.696;8.662;2023-07-13T02:03:50;2.10;;;1.60;;
11893;SDS011;6006;49.696;8.662;2023-07-13T02:06:17;1.63;;;1.53;;
11893;SDS011;6006;49.696;8.662;2023-07-13T02:08:44;1.97;;;1.80;;
11893;SDS011;6006;49.696;8.662;2023-07-13T02:11:11;1.80;;;1.70;;
11893;SDS011;6006;49.696;8.662;2023-07-13T02:13:39;2.27;;;1.70;;
11893;SDS011;6006;49.696;8.662;2023-07-13T02:16:06;1.93;;;1.83;;
11893;SDS011;6006;49.696;8.662;2023-07-13T02:18:33;2.17;;;1.87;;
11893;SDS011;6006;49.696;8.662;2023-07-13T02:21:00;1.87;;;1.77;;
11893;SDS011;6006;49.696;8.662;2023-07-13T02:23:27;1.80;;;1.70;;
11893;SDS011;6006;49.696;8.662;2023-07-13T02:25:55;2.63;;;1.80;;
11893;SDS011;6006;49.696;8.662;2023-07-13T02:28:22;3.40;;;1.87;;
11893;SDS011;6006;49.696;8.662;2023-07-13T02:30:50;3.17;;;1.80;;
11893;SDS011;6006;49.696;8.662;2023-07-13T02:33:17;1.97;;;1.80;;
11893;SDS011;6006;49.696;8.662;2023-07-13T02:35:44;1.93;;;1.80;;
11893;SDS011;6006;49.696;8.662;2023-07-13T02:38:11;2.70;;;2.40;;
11893;SDS011;6006;49.696;8.662;2023-07-13T02:40:38;2.20;;;2.03;;
11893;SDS011;6006;49.696;8.662;2023-07-13T02:43:05;5.63;;;2.43;;
11893;SDS011;6006;49.696;8.662;2023-07-13T02:45:31;3.50;;;2.00;;
11893;SDS011;6006;49.696;8.662;2023-07-13T02:48:00;2.90;;;1.87;;
11893;SDS011;6006;49.696;8.662;2023-07-13T02:50:26;2.60;;;1.77;;
11893;SDS011;6006;49.696;8.662;2023-07-13T02:52:53;1.87;;;1.77;;
11893;SDS011;6006;49.696;8.662;2023-07-13T02:55:20;2.57;;;1.70;;
11893;SDS011;6006;49.696;8.662;2023-07-13T02:57:48;2.17;;;2.07;;
11893;SDS011;6006;49.696;8.662;2023-07-13T03:00:15;2.00;;;1.90;;
11893;SDS011;6006;49.696;8.662;2023-07-13T03:02:42;2.17;;;2.03;;
11893;SDS011;6006;49.696;8.662;2023-07-13T03:05:12;2.10;;;1.83;;
11893;SDS011;6006;49.696;8.662;2023-07-13T03:07:39;1.93;;;1.70;;
11893;SDS011;6006;49.696;8.662;2023-07-13T03:10:07;2.57;;;1.83;;
11893;SDS011;6006;49.696;8.662;2023-07-13T03:12:35;2.77;;;2.10;;
11893;SDS011;6006;49.696;8.662;2023-07-13T03:15:02;3.53;;;2.40;;
11893;SDS011;6006;49.696;8.662;2023-07-13T03:17:29;2.70;;;2.00;;
11893;SDS011;6006;49.696;8.662;2023-07-13T03:19:56;3.77;;;2.17;;
11893;SDS011;6006;49.696;8.662;2023-07-13T03:22:24;3.87;;;2.23;;
11893;SDS011;6006;49.696;8.662;2023-07-13T03:24:51;2.80;;;2.10;;
11893;SDS011;6006;49.696;8.662;2023-07-13T03:27:18;4.07;;;2.20;;
11893;SDS011;6006;49.696;8.662;2023-07-13T03:29:45;2.33;;;2.10;;
11893;SDS011;6006;49.696;8.662;2023-07-13T03:32:12;2.00;;;1.90;;
11893;SDS011;6006;49.696;8.662;2023-07-13T03:34:38;2.60;;;2.10;;
11893;SDS011;6006;49.696;8.662;2023-07-13T03:37:05;2.97;;;2.27;;
11893;SDS011;6006;49.696;8.662;2023-07-13T03:39:33;2.20;;;2.00;;
11893;SDS011;6006;49.696;8.662;2023-07-13T03:42:00;2.00;;;1.90;;
11893;SDS011;6006;49.696;8.662;2023-07-13T03:44:27;2.90;;;2.17;;
11893;SDS011;6006;49.696;8.662;2023-07-13T03:46:54;5.43;;;2.07;;
11893;SDS011;6006;49.696;8.662;2023-07-13T03:49:21;2.37;;;2.10;;
11893;SDS011;6006;49.696;8.662;2023-07-13T03:51:48;1.77;;;1.67;;
11893;SDS011;6006;49.696;8.662;2023-07-13T03:54:15;2.77;;;2.33;;
11893;SDS011;6006;49.696;8.662;2023-07-13T03:56:43;2.13;;;1.90;;
11893;SDS011;6006;49.696;8.662;2023-07-13T03:59:10;4.37;;;1.90;;
11893;SDS011;6006;49.696;8.662;2023-07-13T04:01:37;2.17;;;2.07;;
11893;SDS011;6006;49.696;8.662;2023-07-13T04:04:04;2.50;;;2.30;;
11893;SDS011;6006;49.696;8.662;2023-07-13T04:06:31;5.57;;;1.87;;
11893;SDS011;6006;49.696;8.662;2023-07-13T04:08:59;2.63;;;2.40;;
11893;SDS011;6006;49.696;8.662;2023-07-13T04:11:27;2.63;;;2.00;;
11893;SDS011;6006;49.696;8.662;2023-07-13T04:13:58;2.27;;;1.83;;
11893;SDS011;6006;49.696;8.662;2023-07-13T04:16:25;2.03;;;1.80;;
11893;SDS011;6006;49.696;8.662;2023-07-13T04:18:52;2.20;;;2.07;;
11893;SDS011;6006;49.696;8.662;2023-07-13T04:21:19;2.47;;;2.27;;
11893;SDS011;6006;49.696;8.662;2023-07-13T04:23:47;3.27;;;2.20;;
11893;SDS011;6006;49.696;8.662;2023-07-13T04:26:13;3.23;;;2.07;;
11893;SDS011;6006;49.696;8.662;2023-07-13T04:28:41;3.37;;;2.40;;
11893;SDS011;6006;49.696;8.662;2023-07-13T04:31:09;3.07;;;2.47;;
11893;SDS011;6006;49.696;8.662;2023-07-13T04:33:36;2.27;;;2.07;;
11893;SDS011;6006;49.696;8.662;2023-07-13T04:36:03;2.23;;;2.03;;
11893;SDS011;6006;49.696;8.662;2023-07-13T04:38:31;2.20;;;1.93;;
11893;SDS011;6006;49.696;8.662;2023-07-13T04:41:00;3.73;;;2.37;;
11893;SDS011;6006;49.696;8.662;2023-07-13T04:43:28;2.30;;;2.10;;
11893;SDS011;6006;49.696;8.662;2023-07-13T04:45:56;2.97;;;2.10;;
11893;SDS011;6006;49.696;8.662;2023-07-13T04:48:30;2.33;;;2.07;;
11893;SDS011;6006;49.696;8.662;2023-07-13T04:50:57;3.33;;;2.00;;
11893;SDS011;6006;49.696;8.662;2023-07-13T04:53:24;2.00;;;1.90;;
11893;SDS011;6006;49.696;8.662;2023-07-13T04:55:52;1.80;;;1.70;;
11893;SDS011;6006;49.696;8.662;2023-07-13T04:58:19;2.87;;;1.70;;
11893;SDS011;6006;49.696;8.662;2023-07-13T05:00:46;5.60;;;2.47;;
11893;SDS011;6006;49.696;8.662;2023-07-13T05:03:13;3.83;;;2.10;;
11893;SDS011;6006;49.696;8.662;2023-07-13T05:05:41;1.80;;;1.70;;
11893;SDS011;6006;49.696;8.662;2023-07-13T05:08:08;2.23;;;1.90;;
11893;SDS011;6006;49.696;8.662;2023-07-13T05:10:35;2.53;;;2.00;;
11893;SDS011;6006;49.696;8.662;2023-07-13T05:13:02;2.07;;;1.87;;
11893;SDS011;6006;49.696;8.662;2023-07-13T05:15:29;3.77;;;2.10;;
11893;SDS011;6006;49.696;8.662;2023-07-13T05:17:56;2.27;;;1.90;;
11893;SDS011;6006;49.696;8.662;2023-07-13T05:20:23;2.63;;;1.80;;
11893;SDS011;6006;49.696;8.662;2023-07-13T05:22:51;2.87;;;1.90;;
11893;SDS011;6006;49.696;8.662;2023-07-13T05:25:18;2.47;;;1.90;;
11893;SDS011;6006;49.696;8.662;2023-07-13T05:27:45;1.73;;;1.60;;
11893;SDS011;6006;49.696;8.662;2023-07-13T05:30:12;1.73;;;1.60;;
11893;SDS011;6006;49.696;8.662;2023-07-13T05:32:39;1.90;;;1.47;;
11893;SDS011;6006;49.696;8.662;2023-07-13T05:35:06;1.83;;;1.73;;
11893;SDS011;6006;49.696;8.662;2023-07-13T05:37:34;1.70;;;1.60;;
11893;SDS011;6006;49.696;8.662;2023-07-13T05:40:02;2.15;;;1.58;;
11893;SDS011;6006;49.696;8.662;2023-07-13T05:42:29;1.52;;;1.40;;
11893;SDS011;6006;49.696;8.662;2023-07-13T05:44:57;2.10;;;1.42;;
11893;SDS011;6006;49.696;8.662;2023-07-13T05:47:24;1.65;;;1.55;;
11893;SDS011;6006;49.696;8.662;2023-07-13T05:49:51;2.45;;;1.50;;
11893;SDS011;6006;49.696;8.662;2023-07-13T05:52:17;3.72;;;2.03;;
11893;SDS011;6006;49.696;8.662;2023-07-13T05:54:44;2.70;;;1.40;;
11893;SDS011;6006;49.696;8.662;2023-07-13T05:57:13;1.58;;;1.42;;
11893;SDS011;6006;49.696;8.662;2023-07-13T05:59:39;2.65;;;1.77;;
11893;SDS011;6006;49.696;8.662;2023-07-13T06:02:07;3.20;;;1.42;;
11893;SDS011;6006;49.696;8.662;2023-07-13T06:04:35;3.38;;;1.25;;
11893;SDS011;6006;49.696;8.662;2023-07-13T06:07:02;2.67;;;1.55;;
11893;SDS011;6006;49.696;8.662;2023-07-13T06:09:29;2.03;;;1.35;;
11893;SDS011;6006;49.696;8.662;2023-07-13T06:11:56;1.10;;;1.10;;
11893;SDS011;6006;49.696;8.662;2023-07-13T06:14:24;0.93;;;0.93;;
11893;SDS011;6006;49.696;8.662;2023-07-13T06:16:51;1.42;;;1.33;;
11893;SDS011;6006;49.696;8.662;2023-07-13T06:19:18;2.30;;;0.85;;
11893;SDS011;6006;49.696;8.662;2023-07-13T06:21:45;2.10;;;1.10;;
11893;SDS011;6006;49.696;8.662;2023-07-13T06:24:12;1.60;;;0.90;;
11893;SDS011;6006;49.696;8.662;2023-07-13T06:26:39;1.52;;;1.10;;
11893;SDS011;6006;49.696;8.662;2023-07-13T06:29:06;0.90;;;0.88;;
11893;SDS011;6006;49.696;8.662;2023-07-13T06:31:34;1.10;;;0.90;;
11893;SDS011;6006;49.696;8.662;2023-07-13T06:34:01;3.20;;;1.10;;
11893;SDS011;6006;49.696;8.662;2023-07-13T06:36:28;1.90;;;0.60;;
11893;SDS011;6006;49.696;8.662;2023-07-13T06:38:55;0.90;;;0.82;;
11893;SDS011;6006;49.696;8.662;2023-07-13T06:41:21;3.10;;;1.10;;
11893;SDS011;6006;49.696;8.662;2023-07-13T06:43:51;1.80;;;0.80;;
11893;SDS011;6006;49.696;8.662;2023-07-13T06:46:18;1.13;;;0.90;;
11893;SDS011;6006;49.696;8.662;2023-07-13T06:48:47;2.47;;;1.00;;
11893;SDS011;6006;49.696;8.662;2023-07-13T06:51:14;0.73;;;0.70;;
11893;SDS011;6006;49.696;8.662;2023-07-13T06:53:41;2.38;;;0.98;;
11893;SDS011;6006;49.696;8.662;2023-07-13T06:56:08;2.13;;;0.93;;
11893;SDS011;6006;49.696;8.662;2023-07-13T06:58:36;1.55;;;0.90;;
11893;SDS011;6006;49.696;8.662;2023-07-13T07:01:03;1.38;;;0.85;;
11893;SDS011;6006;49.696;8.662;2023-07-13T07:03:30;1.17;;;0.73;;
11893;SDS011;6006;49.696;8.662;2023-07-13T07:06:01;3.20;;;0.75;;
11893;SDS011;6006;49.696;8.662;2023-07-13T07:08:28;4.18;;;1.25;;
11893;SDS011;6006;49.696;8.662;2023-07-13T07:10:55;3.20;;;1.00;;
11893;SDS011;6006;49.696;8.662;2023-07-13T07:13:21;1.27;;;0.70;;
11893;SDS011;6006;49.696;8.662;2023-07-13T07:15:49;1.02;;;0.85;;
11893;SDS011;6006;49.696;8.662;2023-07-13T07:18:17;3.80;;;1.52;;
11893;SDS011;6006;49.696;8.662;2023-07-13T07:20:44;2.65;;;1.25;;
11893;SDS011;6006;49.696;8.662;2023-07-13T07:23:12;3.33;;;1.10;;
11893;SDS011;6006;49.696;8.662;2023-07-13T07:25:39;3.58;;;0.90;;
11893;SDS011;6006;49.696;8.662;2023-07-13T07:28:07;1.60;;;1.10;;
11893;SDS011;6006;49.696;8.662;2023-07-13T07:30:34;2.92;;;1.23;;
11893;SDS011;6006;49.696;8.662;2023-07-13T07:33:01;2.38;;;1.10;;
11893;SDS011;6006;49.696;8.662;2023-07-13T07:35:28;3.03;;;0.98;;
11893;SDS011;6006;49.696;8.662;2023-07-13T07:37:55;1.08;;;0.90;;
11893;SDS011;6006;49.696;8.662;2023-07-13T07:40:23;1.92;;;0.85;;
11893;SDS011;6006;49.696;8.662;2023-07-13T07:42:50;1.73;;;0.82;;
11893;SDS011;6006;49.696;8.662;2023-07-13T07:45:17;1.60;;;1.08;;
11893;SDS011;6006;49.696;8.662;2023-07-13T07:47:44;1.58;;;1.02;;
11893;SDS011;6006;49.696;8.662;2023-07-13T07:50:12;2.60;;;1.27;;
11893;SDS011;6006;49.696;8.662;2023-07-13T07:52:39;2.70;;;1.10;;
11893;SDS011;6006;49.696;8.662;2023-07-13T07:55:07;1.73;;;1.00;;
11893;SDS011;6006;49.696;8.662;2023-07-13T07:57:36;1.33;;;1.10;;
11893;SDS011;6006;49.696;8.662;2023-07-13T08:00:03;1.77;;;0.95;;
11893;SDS011;6006;49.696;8.662;2023-07-13T08:02:30;3.13;;;1.00;;
11893;SDS011;6006;49.696;8.662;2023-07-13T08:04:57;2.00;;;1.13;;
11893;SDS011;6006;49.696;8.662;2023-07-13T08:07:24;2.10;;;1.00;;
11893;SDS011;6006;49.696;8.662;2023-07-13T08:09:51;2.13;;;0.82;;
11893;SDS011;6006;49.696;8.662;2023-07-13T08:12:19;1.70;;;1.30;;
11893;SDS011;6006;49.696;8.662;2023-07-13T08:14:48;3.42;;;1.05;;
11893;SDS011;6006;49.696;8.662;2023-07-13T08:17:18;2.58;;;1.02;;
11893;SDS011;6006;49.696;8.662;2023-07-13T08:19:45;0.70;;;0.70;;
11893;SDS011;6006;49.696;8.662;2023-07-13T08:22:12;2.75;;;0.82;;
11893;SDS011;6006;49.696;8.662;2023-07-13T08:24:39;1.27;;;0.90;;
11893;SDS011;6006;49.696;8.662;2023-07-13T08:27:07;1.65;;;1.05;;
11893;SDS011;6006;49.696;8.662;2023-07-13T08:29:34;1.52;;;0.68;;
11893;SDS011;6006;49.696;8.662;2023-07-13T08:32:02;1.92;;;0.80;;
11893;SDS011;6006;49.696;8.662;2023-07-13T08:34:30;0.95;;;0.80;;
11893;SDS011;6006;49.696;8.662;2023-07-13T08:36:57;0.85;;;0.80;;
11893;SDS011;6006;49.696;8.662;2023-07-13T08:39:24;1.60;;;0.80;;
11893;SDS011;6006;49.696;8.662;2023-07-13T08:41:55;1.60;;;1.13;;
11893;SDS011;6006;49.696;8.662;2023-07-13T08:44:27;1.55;;;0.88;;
11893;SDS011;6006;49.696;8.662;2023-07-13T08:47:05;2.22;;;0.90;;
11893;SDS011;6006;49.696;8.662;2023-07-13T08:49:33;2.13;;;1.10;;
11893;SDS011;6006;49.696;8.662;2023-07-13T08:52:02;1.10;;;0.80;;
11893;SDS011;6006;49.696;8.662;2023-07-13T08:54:34;1.95;;;0.90;;
11893;SDS011;6006;49.696;8.662;2023-07-13T08:57:09;1.67;;;0.88;;
11893;SDS011;6006;49.696;8.662;2023-07-13T08:59:39;3.72;;;1.02;;
11893;SDS011;6006;49.696;8.662;2023-07-13T09:02:14;3.78;;;1.00;;
11893;SDS011;6006;49.696;8.662;2023-07-13T09:04:48;3.97;;;1.05;;
11893;SDS011;6006;49.696;8.662;2023-07-13T09:07:21;2.15;;;0.82;;
11893;SDS011;6006;49.696;8.662;2023-07-13T09:09:58;3.92;;;1.15;;
11893;SDS011;6006;49.696;8.662;2023-07-13T09:12:35;2.03;;;1.00;;
11893;SDS011;6006;49.696;8.662;2023-07-13T09:15:14;1.15;;;0.90;;
11893;SDS011;6006;49.696;8.662;2023-07-13T09:17:51;4.35;;;1.00;;
11893;SDS011;6006;49.696;8.662;2023-07-13T09:20:23;1.85;;;0.75;;
11893;SDS011;6006;49.696;8.662;2023-07-13T09:22:53;1.95;;;0.88;;
11893;SDS011;6006;49.696;8.662;2023-07-13T09:25:23;2.28;;;0.90;;
11893;SDS011;6006;49.696;8.662;2023-07-13T09:27:57;1.20;;;0.80;;
11893;SDS011;6006;49.696;8.662;2023-07-13T09:30:30;3.13;;;1.08;;
11893;SDS011;6006;49.696;8.662;2023-07-13T09:33:04;2.05;;;0.90;;
11893;SDS011;6006;49.696;8.662;2023-07-13T09:35:31;4.90;;;1.08;;
11893;SDS011;6006;49.696;8.662;2023-07-13T09:37:59;1.20;;;0.90;;
11893;SDS011;6006;49.696;8.662;2023-07-13T09:40:39;2.50;;;0.90;;
11893;SDS011;6006;49.696;8.662;2023-07-13T09:43:10;1.92;;;1.02;;
11893;SDS011;6006;49.696;8.662;2023-07-13T09:45:41;1.75;;;1.00;;
11893;SDS011;6006;49.696;8.662;2023-07-13T09:48:13;1.95;;;0.85;;
11893;SDS011;6006;49.696;8.662;2023-07-13T09:50:41;2.25;;;0.80;;
11893;SDS011;6006;49.696;8.662;2023-07-13T09:53:11;1.15;;;0.80;;
11893;SDS011;6006;49.696;8.662;2023-07-13T09:55:40;2.17;;;0.85;;
11893;SDS011;6006;49.696;8.662;2023-07-13T09:58:09;1.80;;;0.90;;
11893;SDS011;6006;49.696;8.662;2023-07-13T10:00:38;2.25;;;1.08;;
11893;SDS011;6006;49.696;8.662;2023-07-13T10:03:15;1.73;;;0.73;;
11893;SDS011;6006;49.696;8.662;2023-07-13T10:05:46;3.25;;;1.15;;
11893;SDS011;6006;49.696;8.662;2023-07-13T10:08:17;2.35;;;1.05;;
11893;SDS011;6006;49.696;8.662;2023-07-13T10:10:45;1.75;;;1.20;;
11893;SDS011;6006;49.696;8.662;2023-07-13T10:13:32;2.33;;;0.93;;
11893;SDS011;6006;49.696;8.662;2023-07-13T10:16:02;3.33;;;1.00;;
11893;SDS011;6006;49.696;8.662;2023-07-13T10:18:35;1.85;;;0.82;;
11893;SDS011;6006;49.696;8.662;2023-07-13T10:21:14;2.78;;;1.02;;
11893;SDS011;6006;49.696;8.662;2023-07-13T10:23:43;0.95;;;0.82;;
11893;SDS011;6006;49.696;8.662;2023-07-13T10:26:14;4.22;;;0.90;;
11893;SDS011;6006;49.696;8.662;2023-07-13T10:28:46;1.00;;;0.90;;
11893;SDS011;6006;49.696;8.662;2023-07-13T10:31:18;1.45;;;1.00;;
11893;SDS011;6006;49.696;8.662;2023-07-13T10:33:48;1.30;;;0.90;;
11893;SDS011;6006;49.696;8.662;2023-07-13T10:36:17;2.78;;;1.05;;
11893;SDS011;6006;49.696;8.662;2023-07-13T10:38:54;1.58;;;1.30;;
11893;SDS011;6006;49.696;8.662;2023-07-13T10:41:24;3.08;;;1.00;;
11893;SDS011;6006;49.696;8.662;2023-07-13T10:43:54;0.80;;;0.80;;
11893;SDS011;6006;49.696;8.662;2023-07-13T10:46:22;1.83;;;0.93;;
11893;SDS011;6006;49.696;8.662;2023-07-13T10:48:54;3.15;;;0.80;;
11893;SDS011;6006;49.696;8.662;2023-07-13T10:51:24;2.30;;;0.90;;
11893;SDS011;6006;49.696;8.662;2023-07-13T10:56:38;1.45;;;1.00;;
11893;SDS011;6006;49.696;8.662;2023-07-13T10:59:09;1.60;;;1.00;;
11893;SDS011;6006;49.696;8.662;2023-07-13T11:01:40;4.90;;;1.08;;
11893;SDS011;6006;49.696;8.662;2023-07-13T11:04:19;1.30;;;0.85;;
11893;SDS011;6006;49.696;8.662;2023-07-13T11:06:47;2.42;;;1.10;;
11893;SDS011;6006;49.696;8.662;2023-07-13T11:09:18;1.65;;;0.93;;
11893;SDS011;6006;49.696;8.662;2023-07-13T11:12:01;1.23;;;0.80;;
11893;SDS011;6006;49.696;8.662;2023-07-13T11:14:34;1.73;;;0.90;;
11893;SDS011;6006;49.696;8.662;2023-07-13T11:20:19;2.60;;;0.80;;
11893;SDS011;6006;49.696;8.662;2023-07-13T11:22:49;2.13;;;0.98;;
11893;SDS011;6006;49.696;8.662;2023-07-13T11:25:21;4.95;;;1.00;;
11893;SDS011;6006;49.696;8.662;2023-07-13T11:28:04;1.08;;;0.98;;
11893;SDS011;6006;49.696;8.662;2023-07-13T11:30:40;1.17;;;0.77;;
11893;SDS011;6006;49.696;8.662;2023-07-13T11:33:17;2.17;;;0.85;;
11893;SDS011;6006;49.696;8.662;2023-07-13T11:35:59;1.42;;;0.80;;
11893;SDS011;6006;49.696;8.662;2023-07-13T11:38:30;0.98;;;0.73;;
11893;SDS011;6006;49.696;8.662;2023-07-13T11:41:02;1.75;;;0.90;;
11893;SDS011;6006;49.696;8.662;2023-07-13T11:43:30;2.35;;;1.20;;
11893;SDS011;6006;49.696;8.662;2023-07-13T11:46:11;2.40;;;1.25;;
11893;SDS011;6006;49.696;8.662;2023-07-13T11:48:40;1.08;;;0.80;;
11893;SDS011;6006;49.696;8.662;2023-07-13T11:51:09;2.42;;;1.00;;
11893;SDS011;6006;49.696;8.662;2023-07-13T11:53:45;1.13;;;0.95;;
11893;SDS011;6006;49.696;8.662;2023-07-13T11:56:13;1.38;;;1.10;;
11893;SDS011;6006;49.696;8.662;2023-07-13T11:58:40;2.83;;;1.17;;
11893;SDS011;6006;49.696;8.662;2023-07-13T12:01:10;1.50;;;1.15;;
11893;SDS011;6006;49.696;8.662;2023-07-13T12:03:44;1.95;;;1.30;;
11893;SDS011;6006;49.696;8.662;2023-07-13T12:06:21;1.73;;;0.98;;
11893;SDS011;6006;49.696;8.662;2023-07-13T12:08:55;1.05;;;0.90;;
11893;SDS011;6006;49.696;8.662;2023-07-13T12:11:23;2.65;;;1.23;;
11893;SDS011;6006;49.696;8.662;2023-07-13T12:13:50;2.13;;;1.33;;
11893;SDS011;6006;49.696;8.662;2023-07-13T12:16:20;4.40;;;1.60;;
11893;SDS011;6006;49.696;8.662;2023-07-13T12:18:52;2.17;;;1.10;;
11893;SDS011;6006;49.696;8.662;2023-07-13T12:21:22;2.45;;;1.40;;
11893;SDS011;6006;49.696;8.662;2023-07-13T12:23:55;1.75;;;1.17;;
11893;SDS011;6006;49.696;8.662;2023-07-13T12:26:22;1.83;;;1.08;;
11893;SDS011;6006;49.696;8.662;2023-07-13T12:28:51;2.30;;;1.30;;
11893;SDS011;6006;49.696;8.662;2023-07-13T12:31:26;3.15;;;1.10;;
11893;SDS011;6006;49.696;8.662;2023-07-13T12:34:00;2.25;;;1.00;;
11893;SDS011;6006;49.696;8.662;2023-07-13T12:36:31;1.02;;;1.00;;
11893;SDS011;6006;49.696;8.662;2023-07-13T12:39:00;2.38;;;1.00;;
11893;SDS011;6006;49.696;8.662;2023-07-13T12:41:36;2.45;;;0.93;;
11893;SDS011;6006;49.696;8.662;2023-07-13T12:44:03;1.67;;;0.90;;
11893;SDS011;6006;49.696;8.662;2023-07-13T12:46:30;1.75;;;0.85;;
11893;SDS011;6006;49.696;8.662;2023-07-13T12:48:57;1.67;;;0.80;;
11893;SDS011;6006;49.696;8.662;2023-07-13T12:51:25;1.73;;;0.98;;
11893;SDS011;6006;49.696;8.662;2023-07-13T12:53:57;1.95;;;1.27;;
11893;SDS011;6006;49.696;8.662;2023-07-13T12:56:32;1.50;;;0.88;;
11893;SDS011;6006;49.696;8.662;2023-07-13T12:59:01;8.98;;;1.08;;
11893;SDS011;6006;49.696;8.662;2023-07-13T13:01:31;3.95;;;1.20;;
11893;SDS011;6006;49.696;8.662;2023-07-13T13:04:02;3.60;;;1.13;;
11893;SDS011;6006;49.696;8.662;2023-07-13T13:06:32;1.80;;;1.00;;
11893;SDS011;6006;49.696;8.662;2023-07-13T13:09:02;2.78;;;1.00;;
11893;SDS011;6006;49.696;8.662;2023-07-13T13:11:30;2.28;;;1.10;;
11893;SDS011;6006;49.696;8.662;2023-07-13T13:13:58;1.17;;;0.90;;
11893;SDS011;6006;49.696;8.662;2023-07-13T13:16:29;1.63;;;1.10;;
11893;SDS011;6006;49.696;8.662;2023-07-13T13:18:59;2.50;;;0.90;;
11893;SDS011;6006;49.696;8.662;2023-07-13T13:21:31;2.50;;;1.10;;
11893;SDS011;6006;49.696;8.662;2023-07-13T13:23:58;3.20;;;2.20;;
11893;SDS011;6006;49.696;8.662;2023-07-13T13:26:27;2.10;;;1.13;;
11893;SDS011;6006;49.696;8.662;2023-07-13T13:28:54;1.70;;;1.02;;
11893;SDS011;6006;49.696;8.662;2023-07-13T13:31:20;4.07;;;1.13;;
11893;SDS011;6006;49.696;8.662;2023-07-13T13:33:47;1.10;;;0.90;;
11893;SDS011;6006;49.696;8.662;2023-07-13T13:36:15;4.72;;;0.90;;
11893;SDS011;6006;49.696;8.662;2023-07-13T13:38:43;1.40;;;0.90;;
11893;SDS011;6006;49.696;8.662;2023-07-13T13:41:10;2.80;;;1.00;;
11893;SDS011;6006;49.696;8.662;2023-07-13T13:43:40;2.38;;;1.20;;
11893;SDS011;6006;49.696;8.662;2023-07-13T13:46:13;1.95;;;0.90;;
11893;SDS011;6006;49.696;8.662;2023-07-13T13:48:42;1.92;;;0.98;;
11893;SDS011;6006;49.696;8.662;2023-07-13T13:51:14;1.73;;;0.70;;
11893;SDS011;6006;49.696;8.662;2023-07-13T13:53:43;2.67;;;0.80;;
11893;SDS011;6006;49.696;8.662;2023-07-13T13:56:11;1.50;;;0.90;;
11893;SDS011;6006;49.696;8.662;2023-07-13T13:58:39;2.70;;;0.93;;
11893;SDS011;6006;49.696;8.662;2023-07-13T14:01:10;2.97;;;1.02;;
11893;SDS011;6006;49.696;8.662;2023-07-13T14:03:40;0.90;;;0.85;;
11893;SDS011;6006;49.696;8.662;2023-07-13T14:06:07;1.42;;;1.05;;
11893;SDS011;6006;49.696;8.662;2023-07-13T14:08:37;0.88;;;0.88;;
11893;SDS011;6006;49.696;8.662;2023-07-13T14:11:04;2.85;;;1.00;;
11893;SDS011;6006;49.696;8.662;2023-07-13T14:13:32;2.45;;;0.82;;
11893;SDS011;6006;49.696;8.662;2023-07-13T14:16:04;0.77;;;0.75;;
11893;SDS011;6006;49.696;8.662;2023-07-13T14:18:35;2.22;;;0.82;;
11893;SDS011;6006;49.696;8.662;2023-07-13T14:21:02;1.95;;;0.90;;
11893;SDS011;6006;49.696;8.662;2023-07-13T14:23:29;3.35;;;0.93;;
11893;SDS011;6006;49.696;8.662;2023-07-13T14:25:56;0.98;;;0.80;;
11893;SDS011;6006;49.696;8.662;2023-07-13T14:28:23;1.10;;;0.88;;
11893;SDS011;6006;49.696;8.662;2023-07-13T14:30:51;2.47;;;0.98;;
11893;SDS011;6006;49.696;8.662;2023-07-13T14:33:21;2.92;;;1.00;;
11893;SDS011;6006;49.696;8.662;2023-07-13T14:35:49;3.80;;;1.10;;
11893;SDS011;6006;49.696;8.662;2023-07-13T14:38:17;1.58;;;1.10;;
11893;SDS011;6006;49.696;8.662;2023-07-13T14:40:45;2.10;;;0.93;;
11893;SDS011;6006;49.696;8.662;2023-07-13T14:43:13;1.48;;;0.93;;
11893;SDS011;6006;49.696;8.662;2023-07-13T14:45:42;1.55;;;0.70;;
11893;SDS011;6006;49.696;8.662;2023-07-13T14:48:13;1.88;;;1.20;;
11893;SDS011;6006;49.696;8.662;2023-07-13T14:50:44;2.65;;;0.70;;
11893;SDS011;6006;49.696;8.662;2023-07-13T14:53:11;2.45;;;1.15;;
11893;SDS011;6006;49.696;8.662;2023-07-13T14:55:39;1.77;;;0.80;;
11893;SDS011;6006;49.696;8.662;2023-07-13T14:58:07;2.30;;;1.00;;
11893;SDS011;6006;49.696;8.662;2023-07-13T15:00:35;0.90;;;0.90;;
11893;SDS011;6006;49.696;8.662;2023-07-13T15:03:02;2.47;;;1.15;;
11893;SDS011;6006;49.696;8.662;2023-07-13T15:05:31;2.95;;;0.98;;
11893;SDS011;6006;49.696;8.662;2023-07-13T15:08:00;3.35;;;0.90;;
11893;SDS011;6006;49.696;8.662;2023-07-13T15:10:29;2.15;;;0.98;;
11893;SDS011;6006;49.696;8.662;2023-07-13T15:12:58;0.95;;;0.90;;
11893;SDS011;6006;49.696;8.662;2023-07-13T15:15:28;1.25;;;0.98;;